首页
METAR-TAF:

METAR-TAF

机场 :

拉紹德封, 瑞士

纬度: 47-05-03N, 经度: 006-47-37E, 海拔: 1027米

当前天气观测

该预报发布于10分钟前的11:20 UTC
风速2节,风向多变
温度 6°C
湿度 70%
气压 1018 hPa
能见度10公里或以上
散云层高于2800英尺

METAR: LSGC 261120Z VRB02KT 9999 SCT028 06/01 Q1018

时间: 12:30 (11:30 UTC)

预报

该预报发布于3小时和5分钟前的08:25 UTC
预报有效从26日的 09点(UTC)到 26日的 18点(UTC)
风速3节,风向多变
能见度10公里或以上
多云层高于2500英尺
几率 30% :
短暂存在
从 26日的 15点(UTC)到 26日的 18点(UTC)
雨, 雪

TAF: LSGC 260825Z 2609/2618 VRB03KT 9999 BKN025 PROB30 TEMPO 2615/2618 RASN

超过4000个机场的气象观测和天气预报(METAR&TAF报告)。

可查询的气象台以黄色和红色小点在地图上表示。

将鼠标移到小点上方,可查看气象台名称。

然后点击查看天气观测和预报。

如需切换地图:点击带黑十字的绿色按钮放大地图;点击带横线的绿色按钮缩小地图;或者点击绿色箭头查看邻近地区的地图。


METAR-TAF: